Aeroporto :
LOGIN :

Iscrizione | Disclaimer

   EN    FR    IT 

 










Sommario :    VFR   VFR Marginale   IFR   IFR Intensivo   IFR Molto Intensivo
Visibilità : 
Base nubi : 
>= 8 km
>= 3000ft
5 / 8 km
1000 / 3000 ft
1500m / 5 km
500 / 1000 ft
800 / 1500m
200 / 500 ft
< 800m
< 200 ft
Simboli :   Temporali  Nebbia  Neve Forte  Precipitazioni Forti  Vento > 20 kt
SIGMETs :   Varie  Temporali  Ghiacco  Turbolenza  Onda orograficha  Ceneri Vulcaniche






- Altitudine del aeroporto : 296 ft
- Codice IATA : GKE


ETNG - Geilenkirchen

ULTIMO METAR :
  • 131150Z 23006KT 9999 FEW012 BKN015 07/05 Q1001 TEMPO -SHRA BKN012

METARs OBSOLETI :
  • 131050Z 23008KT 9999 -RA FEW010 BKN013 07/05 Q1001 BECMG NSW BKN015
  • 131025Z 23008G18KT 9000 -RA FEW008 BKN012 06/05 Q1001 BECMG NSW BKN015
  • 130950Z 23008KT 9999 FEW010 BKN015 06/04 Q1001 NOSIG
  • 130850Z 22008G18KT 9999 FEW010 BKN015 06/04 Q1000 NOSIG

TAF TAF ETNG
Valido dal 13 a 12 ore il 14 a 03 ore UTC


131100Z 1312/1403 22010KT 9999 BKN020
PROB30
TEMPO 1312/1314 -SHRA BKN012 SCT020TCU
BECMG 1315/1317 19005KT



MetMap, La meteo Aeronautica in un colpo d'occhio ! - Copyright ORBIFLY Dicembre 2007 - Disclaimer

ORBIFLY MET'MAP TEAM :

Programmazione e sviluppo : Alexandra Zaïnal
Concezione e sviluppo : Baudouin d'Aumeries
Co-Programmazione e sviluppo : Marc-Olivier Méhu
Supporto tecnico e logistico : Manuel Goepfert
Aiuto per la traduzione : Arnaldo La Scala

Contatto : metmap@orbifly.com




FONTI E CREDITI :

   NOAA